sensor_id;sensor_type;location;lat;lon;timestamp;P1;durP1;ratioP1;P2;durP2;ratioP2
25653;SDS011;13511;48.622;9.230;2022-07-05T00:02:04;5.13;;;4.72;;
25653;SDS011;13511;48.622;9.230;2022-07-05T00:04:30;5.47;;;4.55;;
25653;SDS011;13511;48.622;9.230;2022-07-05T00:06:56;7.20;;;4.80;;
25653;SDS011;13511;48.622;9.230;2022-07-05T00:09:40;5.45;;;4.97;;
25653;SDS011;13511;48.622;9.230;2022-07-05T00:12:07;5.30;;;5.00;;
25653;SDS011;13511;48.622;9.230;2022-07-05T00:14:33;5.88;;;4.75;;
25653;SDS011;13511;48.622;9.230;2022-07-05T00:16:59;5.47;;;5.10;;
25653;SDS011;13511;48.622;9.230;2022-07-05T00:19:25;4.85;;;4.50;;
25653;SDS011;13511;48.622;9.230;2022-07-05T00:21:51;5.68;;;4.65;;
25653;SDS011;13511;48.622;9.230;2022-07-05T00:24:17;5.45;;;5.05;;
25653;SDS011;13511;48.622;9.230;2022-07-05T00:26:43;6.57;;;5.15;;
25653;SDS011;13511;48.622;9.230;2022-07-05T00:29:09;7.97;;;5.18;;
25653;SDS011;13511;48.622;9.230;2022-07-05T00:31:35;5.20;;;4.50;;
25653;SDS011;13511;48.622;9.230;2022-07-05T00:34:01;5.57;;;5.10;;
25653;SDS011;13511;48.622;9.230;2022-07-05T00:36:27;5.93;;;5.00;;
25653;SDS011;13511;48.622;9.230;2022-07-05T00:38:53;5.32;;;5.00;;
25653;SDS011;13511;48.622;9.230;2022-07-05T00:41:19;5.22;;;4.90;;
25653;SDS011;13511;48.622;9.230;2022-07-05T00:43:55;5.55;;;5.05;;
25653;SDS011;13511;48.622;9.230;2022-07-05T00:46:21;5.47;;;4.95;;
25653;SDS011;13511;48.622;9.230;2022-07-05T00:48:48;5.72;;;5.32;;
25653;SDS011;13511;48.622;9.230;2022-07-05T00:51:14;6.15;;;5.68;;
25653;SDS011;13511;48.622;9.230;2022-07-05T00:53:40;5.35;;;4.93;;
25653;SDS011;13511;48.622;9.230;2022-07-05T00:56:06;4.95;;;4.75;;
25653;SDS011;13511;48.622;9.230;2022-07-05T00:58:32;5.10;;;4.80;;
25653;SDS011;13511;48.622;9.230;2022-07-05T01:00:59;5.63;;;5.10;;
25653;SDS011;13511;48.622;9.230;2022-07-05T01:03:25;5.15;;;4.65;;
25653;SDS011;13511;48.622;9.230;2022-07-05T01:05:52;4.60;;;4.40;;
25653;SDS011;13511;48.622;9.230;2022-07-05T01:08:18;5.75;;;5.22;;
25653;SDS011;13511;48.622;9.230;2022-07-05T01:10:44;5.55;;;5.13;;
25653;SDS011;13511;48.622;9.230;2022-07-05T01:13:11;5.50;;;5.10;;
25653;SDS011;13511;48.622;9.230;2022-07-05T01:15:37;5.38;;;5.00;;
25653;SDS011;13511;48.622;9.230;2022-07-05T01:18:04;5.30;;;4.80;;
25653;SDS011;13511;48.622;9.230;2022-07-05T01:20:30;6.03;;;5.13;;
25653;SDS011;13511;48.622;9.230;2022-07-05T01:22:57;5.45;;;4.70;;
25653;SDS011;13511;48.622;9.230;2022-07-05T01:25:27;4.90;;;4.60;;
25653;SDS011;13511;48.622;9.230;2022-07-05T01:27:54;5.25;;;4.90;;
25653;SDS011;13511;48.622;9.230;2022-07-05T01:30:20;5.97;;;5.10;;
25653;SDS011;13511;48.622;9.230;2022-07-05T01:32:46;10.57;;;5.25;;
25653;SDS011;13511;48.622;9.230;2022-07-05T01:35:12;6.00;;;5.47;;
25653;SDS011;13511;48.622;9.230;2022-07-05T01:37:39;5.28;;;4.88;;
25653;SDS011;13511;48.622;9.230;2022-07-05T01:40:05;5.80;;;5.40;;
25653;SDS011;13511;48.622;9.230;2022-07-05T01:42:32;5.20;;;4.82;;
25653;SDS011;13511;48.622;9.230;2022-07-05T01:44:58;5.63;;;5.20;;
25653;SDS011;13511;48.622;9.230;2022-07-05T01:47:24;5.38;;;5.03;;
25653;SDS011;13511;48.622;9.230;2022-07-05T01:49:51;5.28;;;5.03;;
25653;SDS011;13511;48.622;9.230;2022-07-05T01:52:19;6.45;;;5.70;;
25653;SDS011;13511;48.622;9.230;2022-07-05T01:54:46;5.82;;;5.32;;
25653;SDS011;13511;48.622;9.230;2022-07-05T01:57:12;5.85;;;5.55;;
25653;SDS011;13511;48.622;9.230;2022-07-05T01:59:39;5.53;;;5.22;;
25653;SDS011;13511;48.622;9.230;2022-07-05T02:02:06;5.93;;;5.40;;
25653;SDS011;13511;48.622;9.230;2022-07-05T02:04:35;5.35;;;4.95;;
25653;SDS011;13511;48.622;9.230;2022-07-05T02:07:05;5.72;;;5.25;;
25653;SDS011;13511;48.622;9.230;2022-07-05T02:09:31;5.15;;;4.80;;
25653;SDS011;13511;48.622;9.230;2022-07-05T02:11:57;5.82;;;4.80;;
25653;SDS011;13511;48.622;9.230;2022-07-05T02:14:23;6.72;;;5.30;;
25653;SDS011;13511;48.622;9.230;2022-07-05T02:16:49;5.75;;;5.25;;
25653;SDS011;13511;48.622;9.230;2022-07-05T02:19:15;4.70;;;4.50;;
25653;SDS011;13511;48.622;9.230;2022-07-05T02:21:41;5.28;;;4.80;;
25653;SDS011;13511;48.622;9.230;2022-07-05T02:24:07;5.38;;;4.88;;
25653;SDS011;13511;48.622;9.230;2022-07-05T02:26:34;5.13;;;4.82;;
25653;SDS011;13511;48.622;9.230;2022-07-05T02:29:00;4.82;;;4.53;;
25653;SDS011;13511;48.622;9.230;2022-07-05T02:31:27;5.03;;;4.72;;
25653;SDS011;13511;48.622;9.230;2022-07-05T02:33:53;6.15;;;5.20;;
25653;SDS011;13511;48.622;9.230;2022-07-05T02:36:19;5.50;;;5.10;;
25653;SDS011;13511;48.622;9.230;2022-07-05T02:38:45;4.75;;;4.50;;
25653;SDS011;13511;48.622;9.230;2022-07-05T02:41:11;5.53;;;5.15;;
25653;SDS011;13511;48.622;9.230;2022-07-05T02:43:37;7.78;;;5.43;;
25653;SDS011;13511;48.622;9.230;2022-07-05T02:46:04;5.55;;;5.03;;
25653;SDS011;13511;48.622;9.230;2022-07-05T02:48:30;4.90;;;4.50;;
25653;SDS011;13511;48.622;9.230;2022-07-05T02:50:56;5.13;;;4.80;;
25653;SDS011;13511;48.622;9.230;2022-07-05T02:53:23;5.00;;;4.80;;
25653;SDS011;13511;48.622;9.230;2022-07-05T02:55:49;5.53;;;5.10;;
25653;SDS011;13511;48.622;9.230;2022-07-05T02:58:15;6.47;;;4.55;;
25653;SDS011;13511;48.622;9.230;2022-07-05T03:00:44;4.72;;;4.47;;
25653;SDS011;13511;48.622;9.230;2022-07-05T03:03:11;5.40;;;5.10;;
25653;SDS011;13511;48.622;9.230;2022-07-05T03:05:37;5.43;;;4.82;;
25653;SDS011;13511;48.622;9.230;2022-07-05T03:08:04;5.03;;;4.72;;
25653;SDS011;13511;48.622;9.230;2022-07-05T03:10:30;4.78;;;4.38;;
25653;SDS011;13511;48.622;9.230;2022-07-05T03:12:56;4.65;;;4.25;;
25653;SDS011;13511;48.622;9.230;2022-07-05T03:15:22;4.85;;;4.63;;
25653;SDS011;13511;48.622;9.230;2022-07-05T03:17:48;5.90;;;5.35;;
25653;SDS011;13511;48.622;9.230;2022-07-05T03:20:14;5.40;;;4.90;;
25653;SDS011;13511;48.622;9.230;2022-07-05T03:22:40;5.85;;;5.35;;
25653;SDS011;13511;48.622;9.230;2022-07-05T03:25:06;5.15;;;4.72;;
25653;SDS011;13511;48.622;9.230;2022-07-05T03:27:32;5.50;;;5.20;;
25653;SDS011;13511;48.622;9.230;2022-07-05T03:29:58;8.80;;;5.78;;
25653;SDS011;13511;48.622;9.230;2022-07-05T03:32:24;4.93;;;4.55;;
25653;SDS011;13511;48.622;9.230;2022-07-05T03:34:50;5.65;;;5.15;;
25653;SDS011;13511;48.622;9.230;2022-07-05T03:37:16;5.70;;;5.25;;
25653;SDS011;13511;48.622;9.230;2022-07-05T03:39:42;5.57;;;4.97;;
25653;SDS011;13511;48.622;9.230;2022-07-05T03:42:08;5.50;;;5.10;;
25653;SDS011;13511;48.622;9.230;2022-07-05T03:44:34;5.18;;;4.88;;
25653;SDS011;13511;48.622;9.230;2022-07-05T03:47:00;6.88;;;5.50;;
25653;SDS011;13511;48.622;9.230;2022-07-05T03:49:26;4.93;;;4.72;;
25653;SDS011;13511;48.622;9.230;2022-07-05T03:51:52;5.43;;;4.93;;
25653;SDS011;13511;48.622;9.230;2022-07-05T03:54:18;5.68;;;5.30;;
25653;SDS011;13511;48.622;9.230;2022-07-05T03:56:44;5.63;;;5.00;;
25653;SDS011;13511;48.622;9.230;2022-07-05T03:59:10;5.63;;;5.13;;
25653;SDS011;13511;48.622;9.230;2022-07-05T04:01:36;5.55;;;5.25;;
25653;SDS011;13511;48.622;9.230;2022-07-05T04:04:02;5.72;;;5.20;;
25653;SDS011;13511;48.622;9.230;2022-07-05T04:06:28;4.95;;;4.72;;
25653;SDS011;13511;48.622;9.230;2022-07-05T04:08:54;5.50;;;5.07;;
25653;SDS011;13511;48.622;9.230;2022-07-05T04:11:20;5.70;;;5.28;;
25653;SDS011;13511;48.622;9.230;2022-07-05T04:13:46;5.45;;;5.15;;
25653;SDS011;13511;48.622;9.230;2022-07-05T04:16:12;8.90;;;5.35;;
25653;SDS011;13511;48.622;9.230;2022-07-05T04:18:38;5.47;;;5.07;;
25653;SDS011;13511;48.622;9.230;2022-07-05T04:21:04;8.10;;;5.03;;
25653;SDS011;13511;48.622;9.230;2022-07-05T04:23:31;6.20;;;5.30;;
25653;SDS011;13511;48.622;9.230;2022-07-05T04:25:57;5.75;;;5.35;;
25653;SDS011;13511;48.622;9.230;2022-07-05T04:28:23;6.30;;;5.30;;
25653;SDS011;13511;48.622;9.230;2022-07-05T04:30:49;5.78;;;5.22;;
25653;SDS011;13511;48.622;9.230;2022-07-05T04:33:15;6.13;;;5.60;;
25653;SDS011;13511;48.622;9.230;2022-07-05T04:35:41;5.43;;;5.13;;
25653;SDS011;13511;48.622;9.230;2022-07-05T04:38:07;5.72;;;5.43;;
25653;SDS011;13511;48.622;9.230;2022-07-05T04:40:33;5.80;;;5.45;;
25653;SDS011;13511;48.622;9.230;2022-07-05T04:42:59;5.38;;;4.97;;
25653;SDS011;13511;48.622;9.230;2022-07-05T04:45:25;5.32;;;4.88;;
25653;SDS011;13511;48.622;9.230;2022-07-05T04:47:51;5.60;;;4.70;;
25653;SDS011;13511;48.622;9.230;2022-07-05T04:50:17;6.03;;;5.35;;
25653;SDS011;13511;48.622;9.230;2022-07-05T04:52:43;6.25;;;5.00;;
25653;SDS011;13511;48.622;9.230;2022-07-05T04:55:09;5.03;;;4.80;;
25653;SDS011;13511;48.622;9.230;2022-07-05T04:57:41;5.90;;;5.50;;
25653;SDS011;13511;48.622;9.230;2022-07-05T05:00:08;5.60;;;5.18;;
25653;SDS011;13511;48.622;9.230;2022-07-05T05:02:35;5.45;;;5.00;;
25653;SDS011;13511;48.622;9.230;2022-07-05T05:05:01;6.85;;;5.35;;
25653;SDS011;13511;48.622;9.230;2022-07-05T05:07:28;5.47;;;5.07;;
25653;SDS011;13511;48.622;9.230;2022-07-05T05:09:54;5.55;;;5.00;;
25653;SDS011;13511;48.622;9.230;2022-07-05T05:12:20;6.88;;;5.20;;
25653;SDS011;13511;48.622;9.230;2022-07-05T05:14:46;5.50;;;5.07;;
25653;SDS011;13511;48.622;9.230;2022-07-05T05:17:12;5.43;;;5.05;;
25653;SDS011;13511;48.622;9.230;2022-07-05T05:19:38;4.80;;;4.53;;
25653;SDS011;13511;48.622;9.230;2022-07-05T05:22:04;4.85;;;4.60;;
25653;SDS011;13511;48.622;9.230;2022-07-05T05:24:30;5.65;;;5.07;;
25653;SDS011;13511;48.622;9.230;2022-07-05T05:26:59;5.35;;;5.05;;
25653;SDS011;13511;48.622;9.230;2022-07-05T05:29:25;5.10;;;4.60;;
25653;SDS011;13511;48.622;9.230;2022-07-05T05:31:51;14.52;;;5.38;;
25653;SDS011;13511;48.622;9.230;2022-07-05T05:34:17;5.10;;;4.68;;
25653;SDS011;13511;48.622;9.230;2022-07-05T05:36:43;4.75;;;4.55;;
25653;SDS011;13511;48.622;9.230;2022-07-05T05:39:09;5.07;;;4.70;;
25653;SDS011;13511;48.622;9.230;2022-07-05T05:41:35;5.22;;;4.82;;
25653;SDS011;13511;48.622;9.230;2022-07-05T05:44:01;5.35;;;4.72;;
25653;SDS011;13511;48.622;9.230;2022-07-05T05:46:28;5.63;;;5.13;;
25653;SDS011;13511;48.622;9.230;2022-07-05T05:48:54;5.13;;;4.82;;
25653;SDS011;13511;48.622;9.230;2022-07-05T05:51:20;5.28;;;4.78;;
25653;SDS011;13511;48.622;9.230;2022-07-05T05:53:46;5.07;;;4.57;;
25653;SDS011;13511;48.622;9.230;2022-07-05T05:56:12;5.10;;;4.40;;
25653;SDS011;13511;48.622;9.230;2022-07-05T05:58:38;4.60;;;4.30;;
25653;SDS011;13511;48.622;9.230;2022-07-05T06:01:04;5.07;;;4.60;;
25653;SDS011;13511;48.622;9.230;2022-07-05T06:03:30;4.47;;;4.28;;
25653;SDS011;13511;48.622;9.230;2022-07-05T06:05:56;5.68;;;4.95;;
25653;SDS011;13511;48.622;9.230;2022-07-05T06:08:22;4.50;;;4.20;;
25653;SDS011;13511;48.622;9.230;2022-07-05T06:10:48;4.70;;;4.30;;
25653;SDS011;13511;48.622;9.230;2022-07-05T06:13:15;3.83;;;3.67;;
25653;SDS011;13511;48.622;9.230;2022-07-05T06:15:41;4.18;;;3.97;;
25653;SDS011;13511;48.622;9.230;2022-07-05T06:18:07;4.70;;;4.30;;
25653;SDS011;13511;48.622;9.230;2022-07-05T06:20:34;6.43;;;4.15;;
25653;SDS011;13511;48.622;9.230;2022-07-05T06:23:01;4.18;;;3.90;;
25653;SDS011;13511;48.622;9.230;2022-07-05T06:25:28;4.55;;;4.18;;
25653;SDS011;13511;48.622;9.230;2022-07-05T06:27:56;4.10;;;3.88;;
25653;SDS011;13511;48.622;9.230;2022-07-05T06:30:22;4.15;;;3.95;;
25653;SDS011;13511;48.622;9.230;2022-07-05T06:32:48;4.15;;;3.83;;
25653;SDS011;13511;48.622;9.230;2022-07-05T06:35:15;3.88;;;3.67;;
25653;SDS011;13511;48.622;9.230;2022-07-05T06:37:42;4.00;;;3.70;;
25653;SDS011;13511;48.622;9.230;2022-07-05T06:40:08;4.00;;;3.80;;
25653;SDS011;13511;48.622;9.230;2022-07-05T06:42:35;5.57;;;4.20;;
25653;SDS011;13511;48.622;9.230;2022-07-05T06:45:01;4.50;;;4.20;;
25653;SDS011;13511;48.622;9.230;2022-07-05T06:47:27;4.25;;;3.95;;
25653;SDS011;13511;48.622;9.230;2022-07-05T06:49:53;4.00;;;3.70;;
25653;SDS011;13511;48.622;9.230;2022-07-05T06:52:18;4.32;;;4.03;;
25653;SDS011;13511;48.622;9.230;2022-07-05T06:54:44;4.65;;;4.35;;
25653;SDS011;13511;48.622;9.230;2022-07-05T06:57:10;4.70;;;4.30;;
25653;SDS011;13511;48.622;9.230;2022-07-05T06:59:36;6.43;;;4.00;;
25653;SDS011;13511;48.622;9.230;2022-07-05T07:02:02;4.10;;;3.80;;
25653;SDS011;13511;48.622;9.230;2022-07-05T07:04:28;3.97;;;3.75;;
25653;SDS011;13511;48.622;9.230;2022-07-05T07:06:54;4.00;;;3.70;;
25653;SDS011;13511;48.622;9.230;2022-07-05T07:09:20;4.47;;;4.10;;
25653;SDS011;13511;48.622;9.230;2022-07-05T07:11:48;4.30;;;3.78;;
25653;SDS011;13511;48.622;9.230;2022-07-05T07:14:17;5.82;;;3.72;;
25653;SDS011;13511;48.622;9.230;2022-07-05T07:16:43;3.58;;;3.38;;
25653;SDS011;13511;48.622;9.230;2022-07-05T07:19:09;4.60;;;4.20;;
25653;SDS011;13511;48.622;9.230;2022-07-05T07:21:35;4.53;;;4.10;;
25653;SDS011;13511;48.622;9.230;2022-07-05T07:24:01;4.30;;;4.10;;
25653;SDS011;13511;48.622;9.230;2022-07-05T07:26:27;5.32;;;4.10;;
25653;SDS011;13511;48.622;9.230;2022-07-05T07:28:53;4.47;;;4.07;;
25653;SDS011;13511;48.622;9.230;2022-07-05T07:31:19;4.40;;;4.13;;
25653;SDS011;13511;48.622;9.230;2022-07-05T07:33:45;4.55;;;4.30;;
25653;SDS011;13511;48.622;9.230;2022-07-05T07:36:11;4.07;;;3.97;;
25653;SDS011;13511;48.622;9.230;2022-07-05T07:38:38;4.80;;;4.40;;
25653;SDS011;13511;48.622;9.230;2022-07-05T07:41:04;4.35;;;4.00;;
25653;SDS011;13511;48.622;9.230;2022-07-05T07:43:30;5.35;;;4.22;;
25653;SDS011;13511;48.622;9.230;2022-07-05T07:45:56;4.45;;;4.25;;
25653;SDS011;13511;48.622;9.230;2022-07-05T07:48:23;4.47;;;4.28;;
25653;SDS011;13511;48.622;9.230;2022-07-05T07:50:49;4.47;;;4.10;;
25653;SDS011;13511;48.622;9.230;2022-07-05T07:53:15;4.57;;;4.07;;
25653;SDS011;13511;48.622;9.230;2022-07-05T07:55:41;4.22;;;4.03;;
25653;SDS011;13511;48.622;9.230;2022-07-05T07:58:07;4.95;;;4.20;;
25653;SDS011;13511;48.622;9.230;2022-07-05T08:00:34;4.53;;;4.15;;
25653;SDS011;13511;48.622;9.230;2022-07-05T08:03:00;4.22;;;3.88;;
25653;SDS011;13511;48.622;9.230;2022-07-05T08:05:26;5.70;;;4.05;;
25653;SDS011;13511;48.622;9.230;2022-07-05T08:07:52;4.03;;;3.72;;
25653;SDS011;13511;48.622;9.230;2022-07-05T08:10:18;6.00;;;3.92;;
25653;SDS011;13511;48.622;9.230;2022-07-05T08:12:44;3.92;;;3.65;;
25653;SDS011;13511;48.622;9.230;2022-07-05T08:15:10;4.07;;;3.85;;
25653;SDS011;13511;48.622;9.230;2022-07-05T08:17:36;4.30;;;4.00;;
25653;SDS011;13511;48.622;9.230;2022-07-05T08:20:02;3.88;;;3.67;;
25653;SDS011;13511;48.622;9.230;2022-07-05T08:22:47;4.30;;;3.90;;
25653;SDS011;13511;48.622;9.230;2022-07-05T08:25:13;4.55;;;4.00;;
25653;SDS011;13511;48.622;9.230;2022-07-05T08:27:39;4.00;;;3.90;;
25653;SDS011;13511;48.622;9.230;2022-07-05T08:30:05;3.63;;;3.53;;
25653;SDS011;13511;48.622;9.230;2022-07-05T08:32:31;4.28;;;3.88;;
25653;SDS011;13511;48.622;9.230;2022-07-05T08:34:57;4.13;;;3.90;;
25653;SDS011;13511;48.622;9.230;2022-07-05T08:37:23;3.90;;;3.60;;
25653;SDS011;13511;48.622;9.230;2022-07-05T08:39:49;4.32;;;3.92;;
25653;SDS011;13511;48.622;9.230;2022-07-05T08:42:15;4.05;;;3.75;;
25653;SDS011;13511;48.622;9.230;2022-07-05T08:44:42;3.95;;;3.75;;
25653;SDS011;13511;48.622;9.230;2022-07-05T08:47:10;4.25;;;3.85;;
25653;SDS011;13511;48.622;9.230;2022-07-05T08:49:37;4.43;;;4.07;;
25653;SDS011;13511;48.622;9.230;2022-07-05T08:52:03;4.00;;;3.80;;
25653;SDS011;13511;48.622;9.230;2022-07-05T08:54:30;3.83;;;3.63;;
25653;SDS011;13511;48.622;9.230;2022-07-05T08:56:57;6.22;;;4.10;;
25653;SDS011;13511;48.622;9.230;2022-07-05T08:59:23;7.50;;;4.18;;
25653;SDS011;13511;48.622;9.230;2022-07-05T09:01:49;6.57;;;4.18;;
25653;SDS011;13511;48.622;9.230;2022-07-05T09:04:16;5.68;;;4.10;;
25653;SDS011;13511;48.622;9.230;2022-07-05T09:06:43;4.10;;;3.90;;
25653;SDS011;13511;48.622;9.230;2022-07-05T09:09:11;4.05;;;3.85;;
25653;SDS011;13511;48.622;9.230;2022-07-05T09:11:38;4.10;;;3.95;;
25653;SDS011;13511;48.622;9.230;2022-07-05T09:14:05;4.78;;;4.35;;
25653;SDS011;13511;48.622;9.230;2022-07-05T09:16:32;4.03;;;3.88;;
25653;SDS011;13511;48.622;9.230;2022-07-05T09:19:07;4.13;;;3.72;;
25653;SDS011;13511;48.622;9.230;2022-07-05T09:21:34;4.80;;;3.85;;
25653;SDS011;13511;48.622;9.230;2022-07-05T09:29:02;4.40;;;4.03;;
25653;SDS011;13511;48.622;9.230;2022-07-05T09:31:32;3.95;;;3.75;;
25653;SDS011;13511;48.622;9.230;2022-07-05T09:39:15;4.07;;;3.80;;
25653;SDS011;13511;48.622;9.230;2022-07-05T09:41:42;4.15;;;3.85;;
25653;SDS011;13511;48.622;9.230;2022-07-05T09:44:08;4.05;;;3.72;;
25653;SDS011;13511;48.622;9.230;2022-07-05T09:46:34;4.15;;;3.85;;
25653;SDS011;13511;48.622;9.230;2022-07-05T09:49:00;3.83;;;3.50;;
25653;SDS011;13511;48.622;9.230;2022-07-05T09:51:26;4.00;;;3.42;;
25653;SDS011;13511;48.622;9.230;2022-07-05T09:53:53;3.92;;;3.72;;
25653;SDS011;13511;48.622;9.230;2022-07-05T09:56:19;4.00;;;3.80;;
25653;SDS011;13511;48.622;9.230;2022-07-05T09:58:46;4.30;;;3.90;;
25653;SDS011;13511;48.622;9.230;2022-07-05T10:03:54;3.78;;;3.47;;
25653;SDS011;13511;48.622;9.230;2022-07-05T10:06:25;3.75;;;3.30;;
25653;SDS011;13511;48.622;9.230;2022-07-05T10:08:52;5.45;;;3.75;;
25653;SDS011;13511;48.622;9.230;2022-07-05T10:11:18;3.63;;;3.40;;
25653;SDS011;13511;48.622;9.230;2022-07-05T10:13:46;3.63;;;3.42;;
25653;SDS011;13511;48.622;9.230;2022-07-05T10:16:13;3.58;;;3.35;;
25653;SDS011;13511;48.622;9.230;2022-07-05T10:18:40;3.20;;;3.10;;
25653;SDS011;13511;48.622;9.230;2022-07-05T10:21:06;3.65;;;3.42;;
25653;SDS011;13511;48.622;9.230;2022-07-05T10:23:33;3.70;;;3.50;;
25653;SDS011;13511;48.622;9.230;2022-07-05T10:25:59;4.00;;;3.65;;
25653;SDS011;13511;48.622;9.230;2022-07-05T10:28:26;3.50;;;3.38;;
25653;SDS011;13511;48.622;9.230;2022-07-05T10:30:52;3.90;;;3.60;;
25653;SDS011;13511;48.622;9.230;2022-07-05T10:33:20;3.60;;;3.40;;
25653;SDS011;13511;48.622;9.230;2022-07-05T10:35:50;3.67;;;3.43;;
25653;SDS011;13511;48.622;9.230;2022-07-05T10:38:16;3.35;;;3.05;;
25653;SDS011;13511;48.622;9.230;2022-07-05T10:40:43;3.90;;;3.30;;
25653;SDS011;13511;48.622;9.230;2022-07-05T10:43:12;3.88;;;3.55;;
25653;SDS011;13511;48.622;9.230;2022-07-05T10:45:39;3.92;;;3.72;;
25653;SDS011;13511;48.622;9.230;2022-07-05T10:48:18;3.60;;;3.20;;
25653;SDS011;13511;48.622;9.230;2022-07-05T10:50:55;3.47;;;3.17;;
25653;SDS011;13511;48.622;9.230;2022-07-05T10:53:28;3.60;;;3.40;;
25653;SDS011;13511;48.622;9.230;2022-07-05T10:58:34;4.65;;;3.70;;
25653;SDS011;13511;48.622;9.230;2022-07-05T11:06:27;3.40;;;3.30;;
25653;SDS011;13511;48.622;9.230;2022-07-05T11:13:51;4.57;;;3.50;;
25653;SDS011;13511;48.622;9.230;2022-07-05T11:16:19;4.95;;;3.53;;
25653;SDS011;13511;48.622;9.230;2022-07-05T11:18:46;3.42;;;3.22;;
25653;SDS011;13511;48.622;9.230;2022-07-05T11:21:16;3.35;;;3.15;;
25653;SDS011;13511;48.622;9.230;2022-07-05T11:23:42;3.70;;;3.53;;
25653;SDS011;13511;48.622;9.230;2022-07-05T11:26:08;3.42;;;3.33;;
25653;SDS011;13511;48.622;9.230;2022-07-05T11:28:41;4.00;;;3.80;;
25653;SDS011;13511;48.622;9.230;2022-07-05T11:31:08;4.60;;;4.30;;
25653;SDS011;13511;48.622;9.230;2022-07-05T11:33:41;4.07;;;3.78;;
25653;SDS011;13511;48.622;9.230;2022-07-05T11:36:22;4.22;;;3.90;;
25653;SDS011;13511;48.622;9.230;2022-07-05T11:41:37;4.30;;;4.00;;
25653;SDS011;13511;48.622;9.230;2022-07-05T11:44:04;4.15;;;3.75;;
25653;SDS011;13511;48.622;9.230;2022-07-05T11:46:32;4.27;;;3.90;;
25653;SDS011;13511;48.622;9.230;2022-07-05T11:48:59;4.25;;;3.97;;
25653;SDS011;13511;48.622;9.230;2022-07-05T11:51:25;4.10;;;3.90;;
25653;SDS011;13511;48.622;9.230;2022-07-05T11:53:51;3.88;;;3.60;;
25653;SDS011;13511;48.622;9.230;2022-07-05T11:56:17;3.75;;;3.50;;
25653;SDS011;13511;48.622;9.230;2022-07-05T11:58:43;4.28;;;3.78;;
25653;SDS011;13511;48.622;9.230;2022-07-05T12:01:09;3.97;;;3.58;;
25653;SDS011;13511;48.622;9.230;2022-07-05T12:03:35;5.97;;;3.78;;
25653;SDS011;13511;48.622;9.230;2022-07-05T12:06:13;3.30;;;3.20;;
25653;SDS011;13511;48.622;9.230;2022-07-05T12:08:39;5.10;;;3.47;;
25653;SDS011;13511;48.622;9.230;2022-07-05T12:11:05;4.00;;;3.72;;
25653;SDS011;13511;48.622;9.230;2022-07-05T12:13:50;3.78;;;3.63;;
25653;SDS011;13511;48.622;9.230;2022-07-05T12:16:16;4.30;;;3.50;;
25653;SDS011;13511;48.622;9.230;2022-07-05T12:21:18;3.75;;;3.55;;
25653;SDS011;13511;48.622;9.230;2022-07-05T12:23:47;3.70;;;3.60;;
25653;SDS011;13511;48.622;9.230;2022-07-05T12:26:14;3.80;;;3.60;;
25653;SDS011;13511;48.622;9.230;2022-07-05T12:28:41;3.85;;;3.55;;
25653;SDS011;13511;48.622;9.230;2022-07-05T12:31:42;3.30;;;3.20;;
25653;SDS011;13511;48.622;9.230;2022-07-05T12:34:15;3.58;;;3.28;;
25653;SDS011;13511;48.622;9.230;2022-07-05T12:36:44;4.10;;;3.30;;
25653;SDS011;13511;48.622;9.230;2022-07-05T12:39:10;3.60;;;3.50;;
25653;SDS011;13511;48.622;9.230;2022-07-05T12:41:41;3.70;;;3.50;;
25653;SDS011;13511;48.622;9.230;2022-07-05T12:44:07;3.60;;;3.33;;
25653;SDS011;13511;48.622;9.230;2022-07-05T12:46:37;3.72;;;3.53;;
25653;SDS011;13511;48.622;9.230;2022-07-05T12:49:04;3.95;;;3.80;;
25653;SDS011;13511;48.622;9.230;2022-07-05T12:51:36;3.75;;;3.35;;
25653;SDS011;13511;48.622;9.230;2022-07-05T12:54:36;3.70;;;3.47;;
25653;SDS011;13511;48.622;9.230;2022-07-05T12:57:16;3.80;;;3.47;;
25653;SDS011;13511;48.622;9.230;2022-07-05T13:00:07;7.43;;;3.40;;
25653;SDS011;13511;48.622;9.230;2022-07-05T13:05:03;3.60;;;3.30;;
25653;SDS011;13511;48.622;9.230;2022-07-05T13:07:29;4.07;;;3.33;;
25653;SDS011;13511;48.622;9.230;2022-07-05T13:09:55;4.13;;;3.83;;
25653;SDS011;13511;48.622;9.230;2022-07-05T13:12:38;3.70;;;3.50;;
25653;SDS011;13511;48.622;9.230;2022-07-05T13:15:04;6.20;;;3.40;;
25653;SDS011;13511;48.622;9.230;2022-07-05T13:17:30;3.53;;;3.20;;
25653;SDS011;13511;48.622;9.230;2022-07-05T13:19:56;6.28;;;3.55;;
25653;SDS011;13511;48.622;9.230;2022-07-05T13:22:22;3.80;;;3.42;;
25653;SDS011;13511;48.622;9.230;2022-07-05T13:24:48;3.55;;;3.35;;
25653;SDS011;13511;48.622;9.230;2022-07-05T13:27:14;3.50;;;3.30;;
25653;SDS011;13511;48.622;9.230;2022-07-05T13:29:40;3.60;;;3.40;;
25653;SDS011;13511;48.622;9.230;2022-07-05T13:32:06;3.40;;;3.20;;
25653;SDS011;13511;48.622;9.230;2022-07-05T13:34:32;3.60;;;3.30;;
25653;SDS011;13511;48.622;9.230;2022-07-05T13:36:59;3.60;;;3.20;;
25653;SDS011;13511;48.622;9.230;2022-07-05T13:39:26;3.95;;;3.42;;
25653;SDS011;13511;48.622;9.230;2022-07-05T13:41:53;3.28;;;3.17;;
25653;SDS011;13511;48.622;9.230;2022-07-05T13:44:19;3.28;;;3.08;;
25653;SDS011;13511;48.622;9.230;2022-07-05T13:46:46;3.65;;;3.33;;
25653;SDS011;13511;48.622;9.230;2022-07-05T13:49:12;4.28;;;3.00;;
25653;SDS011;13511;48.622;9.230;2022-07-05T13:51:38;3.28;;;3.08;;
25653;SDS011;13511;48.622;9.230;2022-07-05T13:54:04;3.30;;;3.10;;
25653;SDS011;13511;48.622;9.230;2022-07-05T13:56:30;3.75;;;3.10;;
25653;SDS011;13511;48.622;9.230;2022-07-05T13:59:03;3.50;;;3.20;;
25653;SDS011;13511;48.622;9.230;2022-07-05T14:01:29;3.83;;;3.53;;
25653;SDS011;13511;48.622;9.230;2022-07-05T14:03:56;3.10;;;3.00;;
25653;SDS011;13511;48.622;9.230;2022-07-05T14:06:23;3.42;;;3.13;;
25653;SDS011;13511;48.622;9.230;2022-07-05T14:08:49;3.30;;;3.10;;
25653;SDS011;13511;48.622;9.230;2022-07-05T14:11:15;3.60;;;3.17;;
25653;SDS011;13511;48.622;9.230;2022-07-05T14:13:41;3.00;;;2.90;;
25653;SDS011;13511;48.622;9.230;2022-07-05T14:16:07;4.13;;;3.00;;
25653;SDS011;13511;48.622;9.230;2022-07-05T14:18:33;3.33;;;3.08;;
25653;SDS011;13511;48.622;9.230;2022-07-05T14:21:00;3.50;;;3.20;;
25653;SDS011;13511;48.622;9.230;2022-07-05T14:23:26;5.20;;;3.15;;
25653;SDS011;13511;48.622;9.230;2022-07-05T14:25:52;2.83;;;2.63;;
25653;SDS011;13511;48.622;9.230;2022-07-05T14:28:18;3.13;;;2.92;;
25653;SDS011;13511;48.622;9.230;2022-07-05T14:30:44;3.25;;;2.90;;
25653;SDS011;13511;48.622;9.230;2022-07-05T14:33:11;3.45;;;3.20;;
25653;SDS011;13511;48.622;9.230;2022-07-05T14:35:37;5.00;;;3.22;;
25653;SDS011;13511;48.622;9.230;2022-07-05T14:38:04;3.20;;;3.05;;
25653;SDS011;13511;48.622;9.230;2022-07-05T14:40:30;3.10;;;3.00;;
25653;SDS011;13511;48.622;9.230;2022-07-05T14:42:57;3.22;;;3.03;;
25653;SDS011;13511;48.622;9.230;2022-07-05T14:45:23;4.28;;;3.08;;
25653;SDS011;13511;48.622;9.230;2022-07-05T14:47:50;3.22;;;2.90;;
25653;SDS011;13511;48.622;9.230;2022-07-05T14:50:16;3.83;;;3.45;;
25653;SDS011;13511;48.622;9.230;2022-07-05T14:52:42;3.33;;;3.13;;
25653;SDS011;13511;48.622;9.230;2022-07-05T14:55:08;3.20;;;2.90;;
25653;SDS011;13511;48.622;9.230;2022-07-05T14:57:37;3.72;;;3.00;;
25653;SDS011;13511;48.622;9.230;2022-07-05T15:00:04;3.20;;;3.00;;
25653;SDS011;13511;48.622;9.230;2022-07-05T15:02:32;3.03;;;2.78;;
25653;SDS011;13511;48.622;9.230;2022-07-05T15:04:58;4.68;;;3.00;;
25653;SDS011;13511;48.622;9.230;2022-07-05T15:07:24;3.22;;;3.08;;
25653;SDS011;13511;48.622;9.230;2022-07-05T15:09:50;3.55;;;3.13;;
25653;SDS011;13511;48.622;9.230;2022-07-05T15:12:16;3.13;;;3.03;;
25653;SDS011;13511;48.622;9.230;2022-07-05T15:14:42;3.20;;;2.90;;
25653;SDS011;13511;48.622;9.230;2022-07-05T15:17:08;3.28;;;3.08;;
25653;SDS011;13511;48.622;9.230;2022-07-05T15:19:34;3.78;;;3.35;;
25653;SDS011;13511;48.622;9.230;2022-07-05T15:22:01;3.35;;;3.10;;